Time;durP1;ratioP1;P1;durP2;ratioP2;P2;SDS_P1;SDS_P2;PMS_P1;PMS_P2;Temp;Humidity;BMP_temperature;BMP_pressure;BME280_temperature;BME280_humidity;BME280_pressure;Samples;Min_cycle;Max_cycle;Signal;HPM_P1;HPM_P2
2021/08/07 00:02:02;;;;;;;7.03;5.77;;;16.30;99.90;;;;;;5078824;28;20846;-78
2021/08/07 00:04:28;;;;;;;5.75;5.22;;;16.30;99.90;;;;;;5064325;28;20379;-78
2021/08/07 00:06:53;;;;;;;8.70;6.05;;;16.30;99.90;;;;;;5086701;28;20769;-78
2021/08/07 00:09:19;;;;;;;7.87;6.17;;;16.20;99.90;;;;;;5082339;28;20378;-79
2021/08/07 00:11:45;;;;;;;7.00;5.82;;;16.20;99.90;;;;;;5069796;28;20462;-79
2021/08/07 00:14:11;;;;;;;6.07;5.45;;;16.10;99.90;;;;;;5070684;28;20428;-79
2021/08/07 00:16:37;;;;;;;8.15;5.75;;;16.10;99.90;;;;;;5071995;28;20373;-82
2021/08/07 00:19:03;;;;;;;7.53;6.10;;;16.00;99.90;;;;;;5071852;28;20449;-80
2021/08/07 00:21:28;;;;;;;7.57;5.95;;;16.00;99.90;;;;;;5072076;28;20432;-81
2021/08/07 00:23:54;;;;;;;6.40;5.70;;;16.00;99.90;;;;;;5071797;28;20733;-82
2021/08/07 00:26:19;;;;;;;7.17;6.10;;;15.90;99.90;;;;;;5071845;28;20821;-78
2021/08/07 00:28:45;;;;;;;7.03;6.22;;;15.90;99.90;;;;;;5071474;28;20449;-82
2021/08/07 00:31:11;;;;;;;8.03;6.40;;;15.80;99.90;;;;;;5071673;28;20366;-80
2021/08/07 00:33:36;;;;;;;6.33;5.63;;;15.70;99.90;;;;;;5071679;28;20732;-77
2021/08/07 00:36:02;;;;;;;7.43;5.68;;;15.70;99.90;;;;;;5071601;28;20374;-82
2021/08/07 00:38:27;;;;;;;7.20;5.53;;;15.60;99.90;;;;;;5071712;28;20709;-82
2021/08/07 00:40:53;;;;;;;7.93;5.93;;;15.60;99.90;;;;;;5071705;28;20704;-79
2021/08/07 00:43:18;;;;;;;6.77;6.03;;;15.60;99.90;;;;;;5071389;28;20478;-82
2021/08/07 00:45:44;;;;;;;7.03;5.75;;;15.60;99.90;;;;;;5071709;28;20377;-80
2021/08/07 00:48:10;;;;;;;10.97;5.73;;;15.50;99.90;;;;;;5071430;28;20379;-81
2021/08/07 00:50:37;;;;;;;7.27;5.30;;;15.50;99.90;;;;;;5071536;28;20483;-81
2021/08/07 00:53:04;;;;;;;7.50;5.25;;;15.50;99.90;;;;;;5071705;28;20378;-78
2021/08/07 00:55:30;;;;;;;8.23;5.90;;;15.40;99.90;;;;;;5071213;28;20789;-81
2021/08/07 00:57:55;;;;;;;6.20;5.35;;;15.40;99.90;;;;;;5071203;28;21104;-81
2021/08/07 01:00:21;;;;;;;7.83;6.50;;;15.40;99.90;;;;;;5071570;28;20779;-80
2021/08/07 01:02:56;;;;;;;9.03;7.40;;;15.30;99.90;;;;;;5071086;28;20401;-80
2021/08/07 01:05:30;;;;;;;9.32;8.38;;;15.30;99.90;;;;;;5053064;28;20475;-78
2021/08/07 01:08:05;;;;;;;9.40;7.07;;;15.30;99.90;;;;;;5071081;28;20386;-81
2021/08/07 01:10:45;;;;;;;10.13;7.53;;;15.20;99.90;;;;;;5071122;28;20421;-80
2021/08/07 01:13:10;;;;;;;10.32;7.75;;;15.20;99.90;;;;;;5052759;28;20386;-80
2021/08/07 01:15:44;;;;;;;9.00;7.83;;;15.20;99.90;;;;;;5071199;28;20370;-77
2021/08/07 01:18:14;;;;;;;9.65;7.25;;;15.20;99.90;;;;;;5069218;28;20378;-80
2021/08/07 01:20:44;;;;;;;7.60;6.90;;;15.10;99.90;;;;;;5070758;28;20374;-82
2021/08/07 01:23:21;;;;;;;12.30;7.88;;;15.10;99.90;;;;;;5071159;28;20405;-80
2021/08/07 01:25:56;;;;;;;9.20;7.65;;;15.00;99.90;;;;;;5052657;28;20398;-80
2021/08/07 01:28:29;;;;;;;9.35;6.68;;;15.10;99.90;;;;;;5070635;28;20414;-82
2021/08/07 01:30:55;;;;;;;8.13;6.63;;;15.00;99.90;;;;;;5070506;28;20377;-79
2021/08/07 01:33:21;;;;;;;8.17;6.50;;;15.00;99.90;;;;;;5070306;28;20382;-81
2021/08/07 01:35:50;;;;;;;7.47;6.30;;;14.90;99.90;;;;;;5070420;28;20940;-81
2021/08/07 01:38:16;;;;;;;7.88;6.60;;;14.90;99.90;;;;;;5052360;28;20390;-78
2021/08/07 01:40:42;;;;;;;9.20;7.72;;;14.90;99.90;;;;;;5070552;28;20504;-80
2021/08/07 01:43:08;;;;;;;8.73;7.07;;;14.90;99.90;;;;;;5070261;28;20907;-80
2021/08/07 01:45:34;;;;;;;9.27;7.72;;;14.90;99.90;;;;;;5070292;28;20450;-78
2021/08/07 01:48:32;;;;;;;9.97;7.97;;;14.90;99.90;;;;;;5070171;28;20439;-80
2021/08/07 01:51:18;;;;;;;8.10;7.30;;;14.80;99.90;;;;;;5070074;28;20377;-78
2021/08/07 01:53:47;;;;;;;8.93;7.30;;;14.80;99.90;;;;;;5070052;28;20362;-79
2021/08/07 01:56:28;;;;;;;8.00;7.20;;;14.80;99.90;;;;;;5051764;28;20429;-78
2021/08/07 01:59:07;;;;;;;8.82;7.65;;;14.70;99.90;;;;;;5070090;28;20378;-79
2021/08/07 02:01:34;;;;;;;9.40;8.20;;;14.70;99.90;;;;;;5070362;28;20406;-81
2021/08/07 02:04:01;;;;;;;9.40;7.72;;;14.70;99.90;;;;;;5051650;28;20775;-80
2021/08/07 02:06:28;;;;;;;8.40;6.95;;;14.70;99.90;;;;;;5069258;28;20914;-81
2021/08/07 02:08:55;;;;;;;8.70;7.80;;;14.70;99.90;;;;;;5069732;28;20483;-81
2021/08/07 02:11:21;;;;;;;8.77;7.80;;;14.70;99.90;;;;;;5070066;28;20456;-77
2021/08/07 02:13:47;;;;;;;11.00;7.87;;;14.70;99.90;;;;;;5069947;28;20568;-81
2021/08/07 02:16:15;;;;;;;8.35;7.50;;;14.60;99.90;;;;;;5069898;28;20410;-78
2021/08/07 02:18:43;;;;;;;9.30;7.53;;;14.60;99.90;;;;;;5051808;28;20378;-79
2021/08/07 02:21:10;;;;;;;9.93;7.70;;;14.60;99.90;;;;;;5069773;28;20381;-78
2021/08/07 02:23:37;;;;;;;10.35;7.63;;;14.60;99.90;;;;;;5069356;28;20405;-80
2021/08/07 02:26:05;;;;;;;8.75;7.70;;;14.60;99.90;;;;;;5069851;28;20381;-78
2021/08/07 02:28:31;;;;;;;12.40;7.78;;;14.60;99.90;;;;;;5069716;28;20488;-78
2021/08/07 02:31:01;;;;;;;8.27;7.10;;;14.50;99.90;;;;;;5069991;28;20373;-79
2021/08/07 02:33:28;;;;;;;8.40;7.50;;;14.50;99.90;;;;;;5069922;28;20378;-79
2021/08/07 02:35:55;;;;;;;8.15;6.50;;;14.50;99.90;;;;;;5069509;28;20377;-79
2021/08/07 02:38:22;;;;;;;8.50;7.33;;;14.50;99.90;;;;;;5051240;28;20473;-81
2021/08/07 02:40:47;;;;;;;9.75;7.90;;;14.50;99.90;;;;;;5069271;28;20453;-78
2021/08/07 02:43:16;;;;;;;12.38;8.57;;;14.40;99.90;;;;;;5069575;28;20508;-79
2021/08/07 02:45:42;;;;;;;8.90;8.00;;;14.40;99.90;;;;;;5069187;28;20381;-78
2021/08/07 02:48:09;;;;;;;10.48;7.88;;;14.40;99.90;;;;;;5068783;28;20437;-79
2021/08/07 02:50:36;;;;;;;8.98;8.07;;;14.40;99.90;;;;;;5069078;28;20389;-77
2021/08/07 02:53:02;;;;;;;9.73;8.07;;;14.40;99.90;;;;;;5051183;28;20469;-79
2021/08/07 02:55:28;;;;;;;9.63;8.00;;;14.40;99.90;;;;;;5069016;28;20812;-77
2021/08/07 02:57:55;;;;;;;9.15;8.25;;;14.40;99.90;;;;;;5068874;28;20887;-79
2021/08/07 03:00:21;;;;;;;10.75;8.68;;;14.40;99.90;;;;;;5069197;28;20456;-79
2021/08/07 03:02:46;;;;;;;11.40;9.40;;;14.40;99.90;;;;;;5069040;28;20494;-81
2021/08/07 03:05:12;;;;;;;13.93;10.70;;;14.40;99.90;;;;;;5069154;28;20484;-79
2021/08/07 03:07:38;;;;;;;11.15;9.43;;;14.40;99.90;;;;;;5069195;28;20385;-80
2021/08/07 03:10:06;;;;;;;12.15;9.48;;;14.40;99.90;;;;;;5069191;28;20725;-80
2021/08/07 03:12:33;;;;;;;12.93;10.10;;;14.40;99.90;;;;;;5068661;28;20878;-80
2021/08/07 03:14:59;;;;;;;12.27;8.80;;;14.40;99.90;;;;;;5068991;28;20373;-81
2021/08/07 03:17:24;;;;;;;10.00;8.77;;;14.40;99.90;;;;;;5068631;28;20911;-76
2021/08/07 03:19:50;;;;;;;12.07;8.88;;;14.40;99.90;;;;;;5067778;28;20394;-79
2021/08/07 03:22:17;;;;;;;9.63;8.57;;;14.40;99.90;;;;;;5068920;28;20408;-78
2021/08/07 03:24:43;;;;;;;11.55;8.13;;;14.40;99.90;;;;;;5050733;28;20891;-83
2021/08/07 03:27:08;;;;;;;13.85;9.70;;;14.40;99.90;;;;;;5050525;28;20440;-80
2021/08/07 03:29:34;;;;;;;10.95;9.23;;;14.30;99.90;;;;;;5068924;28;20404;-80
2021/08/07 03:32:00;;;;;;;11.50;8.85;;;14.30;99.90;;;;;;5068547;28;20390;-81
2021/08/07 03:34:25;;;;;;;10.03;8.33;;;14.30;99.90;;;;;;5068693;28;21269;-78
2021/08/07 03:36:51;;;;;;;9.07;7.95;;;14.30;99.90;;;;;;5068716;28;20386;-78
2021/08/07 03:39:16;;;;;;;13.00;9.53;;;14.20;99.90;;;;;;5068390;28;20397;-81
2021/08/07 03:41:42;;;;;;;10.63;9.43;;;14.20;99.90;;;;;;5068298;28;20435;-80
2021/08/07 03:44:08;;;;;;;10.95;8.55;;;14.20;99.90;;;;;;5068926;28;20372;-81
2021/08/07 03:46:33;;;;;;;10.23;8.67;;;14.20;99.90;;;;;;5068298;28;20366;-79
2021/08/07 03:48:59;;;;;;;10.50;8.07;;;14.20;99.90;;;;;;5068331;28;20852;-79
2021/08/07 03:51:24;;;;;;;10.40;8.33;;;14.20;99.90;;;;;;5068490;28;20378;-79
2021/08/07 03:53:50;;;;;;;11.70;9.35;;;14.20;99.90;;;;;;5068453;28;20370;-80
2021/08/07 03:56:15;;;;;;;11.82;9.60;;;14.20;99.90;;;;;;5068050;28;20938;-79
2021/08/07 03:58:41;;;;;;;11.03;9.60;;;14.20;99.90;;;;;;5067917;28;20414;-79
2021/08/07 04:01:07;;;;;;;10.30;8.98;;;14.20;99.90;;;;;;5068242;28;20378;-80
2021/08/07 04:03:32;;;;;;;11.20;8.90;;;14.20;99.90;;;;;;5068099;28;20402;-77
2021/08/07 04:05:58;;;;;;;10.00;8.27;;;14.20;99.90;;;;;;5068368;28;20366;-80
2021/08/07 04:08:24;;;;;;;10.80;9.63;;;14.20;99.90;;;;;;5068179;28;20372;-80
2021/08/07 04:10:49;;;;;;;9.93;8.93;;;14.20;99.90;;;;;;5068541;28;20370;-81
2021/08/07 04:13:15;;;;;;;9.75;8.07;;;14.20;99.90;;;;;;5068974;28;21020;-81
2021/08/07 04:15:41;;;;;;;13.13;8.60;;;14.30;99.90;;;;;;5067997;28;20406;-80
2021/08/07 04:18:06;;;;;;;10.90;8.90;;;14.30;99.90;;;;;;5067920;28;20390;-76
2021/08/07 04:20:32;;;;;;;12.07;9.02;;;14.30;99.90;;;;;;5068076;28;20378;-82
2021/08/07 04:22:59;;;;;;;11.20;9.30;;;14.40;99.90;;;;;;5068034;28;20887;-77
2021/08/07 04:25:25;;;;;;;12.07;8.75;;;14.40;99.90;;;;;;5049917;28;20394;-81
2021/08/07 04:27:50;;;;;;;14.68;10.68;;;14.40;99.90;;;;;;5068176;28;20926;-82
2021/08/07 04:30:16;;;;;;;10.07;9.07;;;14.50;99.90;;;;;;5069547;28;20457;-81
2021/08/07 04:32:42;;;;;;;11.00;9.88;;;14.50;99.90;;;;;;5071927;28;20378;-82
2021/08/07 04:35:08;;;;;;;11.82;10.38;;;14.60;99.90;;;;;;5071623;28;20386;-80
2021/08/07 04:37:51;;;;;;;10.48;9.13;;;14.60;99.90;;;;;;5071756;28;20377;-81
2021/08/07 04:40:18;;;;;;;10.55;9.43;;;14.70;99.90;;;;;;5071714;28;21229;-81
2021/08/07 04:42:44;;;;;;;10.68;9.68;;;14.70;99.90;;;;;;5071679;28;20493;-81
2021/08/07 04:45:11;;;;;;;12.27;10.52;;;14.80;99.90;;;;;;5071801;28;20416;-80
2021/08/07 04:47:49;;;;;;;12.85;11.35;;;14.90;99.90;;;;;;5071519;28;20806;-82
2021/08/07 04:50:14;;;;;;;11.80;10.60;;;15.00;99.90;;;;;;5071262;28;20374;-79
2021/08/07 04:52:40;;;;;;;14.55;10.68;;;15.10;99.90;;;;;;5071407;28;20389;-79
2021/08/07 04:55:06;;;;;;;11.33;10.23;;;15.30;99.90;;;;;;5071442;28;20389;-77
2021/08/07 04:57:31;;;;;;;11.05;9.93;;;15.30;99.90;;;;;;5071769;28;20398;-78
2021/08/07 04:59:57;;;;;;;11.52;10.32;;;15.40;99.90;;;;;;5071193;28;20370;-77
2021/08/07 05:02:22;;;;;;;10.97;9.87;;;15.60;99.90;;;;;;5071247;28;20417;-79
2021/08/07 05:04:48;;;;;;;10.30;9.25;;;15.70;99.90;;;;;;5053364;28;20480;-78
2021/08/07 05:07:13;;;;;;;11.47;10.30;;;15.80;99.90;;;;;;5071910;28;20871;-80
2021/08/07 05:09:39;;;;;;;11.95;10.07;;;15.90;99.90;;;;;;5072172;28;20782;-79
2021/08/07 05:12:04;;;;;;;9.50;8.60;;;16.10;99.90;;;;;;5072511;28;20402;-83
2021/08/07 05:14:30;;;;;;;9.07;8.00;;;16.20;99.90;;;;;;5054312;28;20437;-80
2021/08/07 05:16:55;;;;;;;9.13;8.23;;;16.40;99.90;;;;;;5071543;28;20387;-79
2021/08/07 05:19:21;;;;;;;8.25;7.40;;;16.50;99.90;;;;;;5071098;28;20382;-82
2021/08/07 05:21:47;;;;;;;8.47;7.17;;;16.80;99.90;;;;;;5052672;28;20461;-79
2021/08/07 05:24:12;;;;;;;7.65;6.65;;;17.00;99.90;;;;;;5071140;28;20895;-80
2021/08/07 05:26:38;;;;;;;7.73;6.90;;;17.20;99.90;;;;;;5070819;28;20951;-83
2021/08/07 05:29:03;;;;;;;8.10;7.30;;;17.30;99.90;;;;;;5070909;28;20752;-79
2021/08/07 05:31:29;;;;;;;8.97;7.70;;;17.30;99.90;;;;;;5070663;28;20370;-80
2021/08/07 05:33:54;;;;;;;8.75;7.35;;;17.30;99.90;;;;;;5070813;28;20377;-81
2021/08/07 05:36:20;;;;;;;10.27;7.57;;;17.40;99.90;;;;;;5071292;28;20370;-77
2021/08/07 05:38:45;;;;;;;8.60;7.77;;;17.40;99.90;;;;;;5070895;28;20378;-77
2021/08/07 05:41:11;;;;;;;9.87;8.87;;;17.40;99.90;;;;;;5051726;28;20443;-78
2021/08/07 05:43:37;;;;;;;9.63;8.50;;;17.50;99.90;;;;;;5070335;28;20493;-79
2021/08/07 05:46:02;;;;;;;9.03;8.03;;;17.60;99.90;;;;;;5070547;28;20464;-79
2021/08/07 05:48:28;;;;;;;8.70;7.50;;;17.60;99.90;;;;;;5070401;28;20362;-77
2021/08/07 05:50:53;;;;;;;9.20;6.60;;;17.70;99.90;;;;;;5070418;28;20390;-79
2021/08/07 05:53:19;;;;;;;8.87;7.43;;;17.70;99.90;;;;;;5070293;28;20459;-80
2021/08/07 05:55:44;;;;;;;7.45;6.75;;;17.90;99.90;;;;;;5070199;28;20374;-81
2021/08/07 05:58:10;;;;;;;8.10;7.30;;;18.00;99.90;;;;;;5070067;28;20443;-80
2021/08/07 06:00:36;;;;;;;8.43;7.45;;;18.00;99.90;;;;;;5070330;28;20856;-79
2021/08/07 06:03:01;;;;;;;7.93;7.03;;;18.00;99.90;;;;;;5069814;28;20448;-80
2021/08/07 06:05:27;;;;;;;8.00;7.15;;;18.00;99.90;;;;;;5070007;28;20378;-81
2021/08/07 06:07:52;;;;;;;8.70;7.27;;;18.10;99.90;;;;;;5052038;28;20374;-78
2021/08/07 06:10:18;;;;;;;8.23;6.85;;;18.30;99.90;;;;;;5069832;28;20381;-81
2021/08/07 06:12:43;;;;;;;7.77;6.37;;;18.40;99.90;;;;;;5070067;28;20366;-79
2021/08/07 06:15:09;;;;;;;7.55;6.20;;;18.50;99.90;;;;;;5070070;28;20370;-82
2021/08/07 06:17:38;;;;;;;7.97;6.05;;;18.50;99.90;;;;;;5069785;28;20386;-81
2021/08/07 06:20:06;;;;;;;7.78;5.90;;;18.60;99.90;;;;;;5069765;28;20409;-82
2021/08/07 06:22:32;;;;;;;9.48;5.50;;;18.60;99.90;;;;;;5069860;28;20930;-80
2021/08/07 06:25:00;;;;;;;7.43;5.53;;;18.70;99.90;;;;;;5069173;28;20414;-81
2021/08/07 06:27:25;;;;;;;8.50;5.97;;;18.80;99.90;;;;;;5051941;28;20378;-81
2021/08/07 06:29:51;;;;;;;7.68;5.80;;;18.80;99.90;;;;;;5069806;28;20443;-77
2021/08/07 06:32:16;;;;;;;5.73;4.90;;;18.80;99.90;;;;;;5069265;28;20381;-79
2021/08/07 06:34:42;;;;;;;7.65;5.07;;;19.00;99.90;;;;;;5069410;28;20382;-81
2021/08/07 06:37:09;;;;;;;6.90;4.03;;;19.20;99.90;;;;;;5069504;28;20374;-80
2021/08/07 06:39:34;;;;;;;5.50;3.92;;;19.50;99.90;;;;;;5069186;28;20374;-81
2021/08/07 06:42:00;;;;;;;6.78;3.80;;;19.90;99.90;;;;;;5069264;28;20375;-81
2021/08/07 06:44:26;;;;;;;5.60;3.50;;;20.40;99.90;;;;;;5069837;28;20374;-79
2021/08/07 06:46:51;;;;;;;6.27;3.40;;;20.70;99.90;;;;;;5069300;28;20377;-82
2021/08/07 06:49:17;;;;;;;3.80;2.92;;;21.00;99.90;;;;;;5069234;28;20378;-82
2021/08/07 06:51:42;;;;;;;5.83;3.33;;;21.30;99.90;;;;;;5069383;28;20405;-79
2021/08/07 06:54:08;;;;;;;5.00;3.30;;;21.70;99.90;;;;;;5051169;28;20374;-82
2021/08/07 06:56:33;;;;;;;6.23;2.87;;;22.00;99.90;;;;;;5069248;28;20784;-79
2021/08/07 06:58:59;;;;;;;4.67;2.83;;;22.10;99.90;;;;;;5051554;28;20906;-81
2021/08/07 07:01:24;;;;;;;6.65;3.45;;;22.20;99.90;;;;;;5069181;28;20543;-83
2021/08/07 07:03:50;;;;;;;3.90;3.03;;;22.30;99.90;;;;;;5069020;28;20483;-81
2021/08/07 07:06:16;;;;;;;7.57;3.23;;;22.40;99.90;;;;;;5069509;28;20424;-82
2021/08/07 07:08:41;;;;;;;3.22;2.78;;;22.40;99.90;;;;;;5068944;28;20398;-80
2021/08/07 07:11:07;;;;;;;5.67;3.23;;;22.40;99.90;;;;;;5069214;28;20875;-79
2021/08/07 07:13:32;;;;;;;4.88;3.10;;;22.50;99.90;;;;;;5068009;28;21102;-81
2021/08/07 07:15:58;;;;;;;6.50;3.17;;;22.50;99.90;;;;;;5067979;28;20877;-81
2021/08/07 07:18:23;;;;;;;4.80;3.00;;;22.50;99.90;;;;;;5052136;28;20390;-81
2021/08/07 07:20:49;;;;;;;4.97;3.00;;;22.50;99.90;;;;;;5069930;28;20373;-80
2021/08/07 07:23:15;;;;;;;6.70;3.13;;;22.60;99.90;;;;;;5075105;28;20897;-81
2021/08/07 07:25:40;;;;;;;5.27;3.17;;;22.70;99.90;;;;;;5084733;28;20974;-79
2021/08/07 07:28:06;;;;;;;5.78;3.20;;;22.80;99.90;;;;;;5077846;28;20736;-79
2021/08/07 07:30:31;;;;;;;5.27;2.70;;;22.80;99.90;;;;;;5072776;28;20471;-81
2021/08/07 07:32:58;;;;;;;4.35;3.00;;;22.80;99.90;;;;;;5076409;28;20381;-80
2021/08/07 07:35:23;;;;;;;4.82;2.97;;;22.80;99.90;;;;;;5075855;28;20378;-80
2021/08/07 07:37:49;;;;;;;3.97;2.50;;;22.90;99.90;;;;;;5075685;28;20393;-78
2021/08/07 07:40:15;;;;;;;6.20;2.92;;;23.00;99.90;;;;;;5076467;28;20878;-81
2021/08/07 07:42:40;;;;;;;5.40;2.63;;;23.10;99.90;;;;;;5077635;28;20982;-82
2021/08/07 07:45:07;;;;;;;5.70;2.90;;;23.20;99.90;;;;;;5067985;28;20864;-80
2021/08/07 07:47:33;;;;;;;4.83;2.43;;;23.30;99.90;;;;;;5073007;28;20377;-79
2021/08/07 07:49:59;;;;;;;5.13;2.90;;;23.40;99.90;;;;;;5078038;28;20944;-82
2021/08/07 07:52:24;;;;;;;4.00;2.83;;;23.50;99.90;;;;;;5076855;28;20440;-79
2021/08/07 07:54:50;;;;;;;4.77;2.70;;;23.50;99.90;;;;;;5078610;28;20737;-78
2021/08/07 07:57:15;;;;;;;4.07;2.90;;;23.40;99.90;;;;;;5079623;28;20376;-80
2021/08/07 07:59:41;;;;;;;4.80;2.70;;;23.30;99.90;;;;;;5076288;28;20457;-80
2021/08/07 08:02:07;;;;;;;3.90;2.83;;;23.30;99.90;;;;;;5072578;28;20386;-80
2021/08/07 08:04:33;;;;;;;4.32;2.90;;;23.40;99.90;;;;;;5080141;28;20893;-83
2021/08/07 08:07:00;;;;;;;5.35;2.72;;;23.40;99.90;;;;;;5081885;28;20368;-79
2021/08/07 08:09:27;;;;;;;3.97;2.70;;;23.40;99.90;;;;;;5080769;28;20441;-80
2021/08/07 08:11:53;;;;;;;4.72;2.70;;;23.40;99.90;;;;;;5077352;28;20371;-83
2021/08/07 08:14:18;;;;;;;6.90;2.87;;;23.40;99.90;;;;;;5089620;28;20385;-81
2021/08/07 08:16:45;;;;;;;4.77;3.03;;;23.40;99.90;;;;;;5074617;28;20435;-83
2021/08/07 08:19:12;;;;;;;2.73;2.20;;;23.20;99.90;;;;;;5082735;28;20388;-83
2021/08/07 08:21:38;;;;;;;4.82;2.67;;;23.30;99.90;;;;;;5092795;28;20368;-83
2021/08/07 08:24:04;;;;;;;6.95;2.42;;;23.60;99.90;;;;;;5079064;28;20399;-81
2021/08/07 08:26:29;;;;;;;4.67;2.50;;;23.70;99.90;;;;;;5087582;28;20378;-84
2021/08/07 08:28:55;;;;;;;3.70;2.50;;;23.80;99.90;;;;;;5080859;28;20880;-79
2021/08/07 08:31:21;;;;;;;4.23;2.63;;;23.90;99.90;;;;;;5066258;28;20441;-80
2021/08/07 08:33:46;;;;;;;3.97;2.70;;;24.00;99.90;;;;;;5087476;28;20380;-82
2021/08/07 08:36:12;;;;;;;4.38;2.38;;;24.00;99.90;;;;;;5079309;28;20392;-81
2021/08/07 08:38:38;;;;;;;4.47;2.63;;;24.10;99.90;;;;;;5077591;28;20394;-80
2021/08/07 08:41:03;;;;;;;3.42;2.55;;;24.20;99.90;;;;;;5067723;28;20713;-83
2021/08/07 08:43:29;;;;;;;4.53;2.50;;;24.30;99.90;;;;;;5070283;28;20398;-81
2021/08/07 08:45:55;;;;;;;7.18;2.63;;;24.60;99.90;;;;;;5075774;28;22006;-80
2021/08/07 08:48:21;;;;;;;5.32;2.70;;;24.80;99.90;;;;;;5077282;28;20519;-84
2021/08/07 08:50:47;;;;;;;4.22;2.20;;;25.10;99.90;;;;;;5082948;28;20380;-82
2021/08/07 08:53:13;;;;;;;4.07;2.10;;;25.20;99.90;;;;;;5074246;28;20389;-81
2021/08/07 08:55:39;;;;;;;5.38;2.22;;;25.20;99.90;;;;;;5071287;28;20879;-80
2021/08/07 08:58:04;;;;;;;3.70;2.30;;;25.10;99.90;;;;;;5086585;28;20388;-80
2021/08/07 09:00:31;;;;;;;13.00;2.30;;;25.20;99.90;;;;;;5092177;28;20393;-82
2021/08/07 09:02:56;;;;;;;4.15;2.35;;;25.30;99.90;;;;;;5089533;28;20426;-85
2021/08/07 09:05:22;;;;;;;3.58;1.90;;;25.40;99.90;;;;;;5085794;28;20390;-81
2021/08/07 09:07:48;;;;;;;3.33;2.07;;;25.50;99.90;;;;;;5071417;28;20382;-81
2021/08/07 09:10:14;;;;;;;4.00;2.10;;;25.50;99.90;;;;;;5071708;28;20386;-83
2021/08/07 09:12:49;;;;;;;2.88;2.00;;;25.80;99.90;;;;;;5083065;28;20794;-83
2021/08/07 09:15:38;;;;;;;3.28;1.75;;;26.10;99.90;;;;;;5091774;28;20372;-79
2021/08/07 09:18:10;;;;;;;6.37;1.83;;;26.30;99.90;;;;;;5090541;28;20415;-80
2021/08/07 09:20:40;;;;;;;3.08;1.90;;;26.40;99.90;;;;;;5089508;28;20459;-83
2021/08/07 09:23:06;;;;;;;3.22;1.90;;;26.60;99.90;;;;;;5085698;28;20679;-83
2021/08/07 09:25:43;;;;;;;4.27;1.83;;;26.60;99.90;;;;;;5088882;28;20467;-83
2021/08/07 09:28:09;;;;;;;3.15;2.00;;;26.20;99.90;;;;;;5090116;28;20756;-79
2021/08/07 09:30:37;;;;;;;4.27;2.10;;;26.10;99.90;;;;;;5085733;28;20380;-82
2021/08/07 09:33:09;;;;;;;3.80;1.90;;;26.10;99.90;;;;;;5076957;28;20390;-82
2021/08/07 09:35:44;;;;;;;2.30;1.88;;;26.20;99.90;;;;;;5052914;28;20397;-82
2021/08/07 09:38:30;;;;;;;6.72;2.38;;;26.40;99.90;;;;;;5070354;28;20960;-83
2021/08/07 09:40:58;;;;;;;2.50;1.80;;;26.20;99.90;;;;;;5070514;28;20386;-81
2021/08/07 09:43:54;;;;;;;3.78;1.85;;;26.00;99.90;;;;;;5070927;28;20424;-83
2021/08/07 09:46:28;;;;;;;5.03;2.30;;;25.90;99.90;;;;;;5071118;28;20394;-81
2021/08/07 09:48:55;;;;;;;3.73;1.90;;;25.80;99.90;;;;;;5052164;28;20446;-84
2021/08/07 09:51:29;;;;;;;4.05;1.95;;;25.90;99.90;;;;;;5070428;28;20438;-83
2021/08/07 09:54:18;;;;;;;2.20;1.70;;;25.90;99.90;;;;;;5070237;28;20417;-83
2021/08/07 09:56:53;;;;;;;4.78;2.05;;;25.90;99.90;;;;;;5080340;28;20389;-80
2021/08/07 09:59:21;;;;;;;3.67;2.15;;;25.70;99.90;;;;;;5090030;28;20743;-82
2021/08/07 10:01:48;;;;;;;2.80;2.00;;;25.60;99.90;;;;;;5089604;28;20412;-81
2021/08/07 10:04:15;;;;;;;2.55;1.92;;;25.60;99.90;;;;;;5088425;28;20913;-82
2021/08/07 10:22:49;;;;;;;2.90;1.60;;;;;;;;;;5083577;28;20374;-80
2021/08/07 10:25:16;;;;;;;3.90;1.40;;;;;;;;;;5085561;28;20392;-80
2021/08/07 10:27:42;;;;;;;3.65;1.30;;;;;;;;;;5084415;28;20381;-81
2021/08/07 10:30:11;;;;;;;2.63;1.40;;;;;;;;;;5084343;28;20820;-84
2021/08/07 10:32:42;;;;;;;2.55;1.70;;;;;;;;;;5084352;28;20465;-81
2021/08/07 10:35:12;;;;;;;2.58;1.42;;;;;;;;;;5083870;28;20374;-80
2021/08/07 10:37:38;;;;;;;1.63;1.42;;;;;;;;;;5085168;28;20381;-80
2021/08/07 10:40:05;;;;;;;1.67;1.52;;;;;;;;;;5084782;28;20369;-81
2021/08/07 10:42:33;;;;;;;3.13;1.40;;;;;;;;;;5084089;28;20431;-83
2021/08/07 10:44:59;;;;;;;3.35;1.50;;;;;;;;;;5082999;28;20457;-81
2021/08/07 10:47:36;;;;;;;2.08;1.20;;;;;;;;;;5078925;28;20437;-82
2021/08/07 10:50:22;;;;;;;3.27;1.53;;;;;;;;;;5084534;28;20374;-84
2021/08/07 10:52:48;;;;;;;2.45;1.40;;;;;;;;;;5082856;28;20450;-81
2021/08/07 10:55:33;;;;;;;2.83;1.30;;;;;;;;;;5083691;28;20388;-85
2021/08/07 10:57:59;;;;;;;1.63;1.42;;;;;;;;;;5080238;28;20377;-82
2021/08/07 11:00:26;;;;;;;2.70;1.58;;;;;;;;;;5083072;28;20439;-81
2021/08/07 11:03:12;;;;;;;2.50;1.60;;;;;;;;;;5083326;28;20377;-79
2021/08/07 11:05:51;;;;;;;2.38;1.40;;;;;;;;;;5084044;28;20381;-83
2021/08/07 11:08:18;;;;;;;2.33;1.47;;;;;;;;;;5080350;28;20457;-80
2021/08/07 11:10:44;;;;;;;1.73;1.10;;;;;;;;;;5084456;28;20443;-80
2021/08/07 11:13:26;;;;;;;2.20;1.20;;;;;;;;;;5082809;28;20377;-83
2021/08/07 11:16:11;;;;;;;2.33;1.33;;;;;;;;;;5081820;28;20381;-82
2021/08/07 11:18:37;;;;;;;1.83;1.23;;;;;;;;;;5081798;28;20419;-83
2021/08/07 11:21:03;;;;;;;2.30;1.50;;;;;;;;;;5083531;28;20394;-81
2021/08/07 11:23:36;;;;;;;2.20;1.40;;;;;;;;;;5081952;28;20377;-81
2021/08/07 11:26:04;;;;;;;2.00;1.55;;;;;;;;;;5084976;28;20369;-84
2021/08/07 11:28:30;;;;;;;2.80;1.38;;;;;;;;;;5085656;28;20362;-81
2021/08/07 11:31:16;;;;;;;3.20;1.40;;;;;;;;;;5085522;28;20390;-81
2021/08/07 11:33:42;;;;;;;2.20;1.13;;;;;;;;;;5072601;28;20431;-82
2021/08/07 11:36:10;;;;;;;3.13;1.40;;;;;;;;;;5072461;28;20378;-84
2021/08/07 11:38:55;;;;;;;1.77;1.20;;;;;;;;;;5069817;28;20386;-80
2021/08/07 11:41:32;;;;;;;1.65;1.20;;;;;;;;;;5072033;28;20370;-81
2021/08/07 11:43:58;;;;;;;3.37;1.30;;;;;;;;;;5070730;28;20395;-79
2021/08/07 11:46:32;;;;;;;1.77;1.10;;;;;;;;;;5070709;28;20706;-83
2021/08/07 11:48:58;;;;;;;2.83;1.40;;;;;;;;;;5068290;28;20393;-79
2021/08/07 11:51:24;;;;;;;2.63;1.20;;;;;;;;;;5066961;28;20405;-80
2021/08/07 11:53:50;;;;;;;1.90;1.10;;;;;;;;;;5067665;28;20780;-84
2021/08/07 11:56:17;;;;;;;2.22;1.20;;;;;;;;;;5067369;28;20390;-80
2021/08/07 11:58:43;;;;;;;2.03;1.10;;;;;;;;;;5067755;28;20374;-78
2021/08/07 12:01:09;;;;;;;2.13;1.20;;;;;;;;;;5070431;28;20378;-80
2021/08/07 12:03:46;;;;;;;1.20;1.10;;;;;;;;;;5070646;28;20452;-83
2021/08/07 12:06:12;;;;;;;1.75;1.40;;;;;;;;;;5071373;28;20385;-82
2021/08/07 12:08:38;;;;;;;1.75;1.10;;;;;;;;;;5070268;28;20425;-80
2021/08/07 12:11:09;;;;;;;1.50;0.95;;;;;;;;;;5059703;28;20402;-80
2021/08/07 12:13:36;;;;;;;6.60;1.30;;;;;;;;;;5071168;28;20382;-82
2021/08/07 12:16:04;;;;;;;2.67;1.40;;;;;;;;;;5070230;28;21262;-82
2021/08/07 12:18:53;;;;;;;2.13;1.23;;;;;;;;;;5069598;28;20389;-82
2021/08/07 12:21:19;;;;;;;1.83;1.00;;;;;;;;;;5078508;28;20368;-80
2021/08/07 12:23:48;;;;;;;4.05;1.40;;;;;;;;;;5090995;28;20376;-82
2021/08/07 12:26:14;;;;;;;1.83;1.30;;;;;;;;;;5072663;28;20381;-82
2021/08/07 12:28:41;;;;;;;4.45;2.10;;;;;;;;;;5085865;28;20488;-80
2021/08/07 12:31:07;;;;;;;5.70;3.47;;;;;;;;;;5088816;28;20886;-81
2021/08/07 12:33:34;;;;;;;3.47;1.70;;;;;;;;;;5088244;28;20881;-81
2021/08/07 12:36:09;;;;;;;1.85;1.20;;;;;;;;;;5090044;28;20692;-81
2021/08/07 12:38:35;;;;;;;1.95;1.00;;;;;;;;;;5088840;28;20425;-81
2021/08/07 12:41:01;;;;;;;5.20;1.10;;;;;;;;;;5071858;28;20450;-83
2021/08/07 12:43:31;;;;;;;1.88;1.35;;;;;;;;;;5071754;28;20922;-82
2021/08/07 12:46:01;;;;;;;4.03;2.83;;;;;;;;;;5089336;28;20372;-80
2021/08/07 12:48:27;;;;;;;9.65;4.78;;;;;;;;;;5071895;28;20459;-81
2021/08/07 12:51:00;;;;;;;4.43;1.45;;;;;;;;;;5090360;28;20439;-83
2021/08/07 12:53:39;;;;;;;3.67;1.90;;;;;;;;;;5090367;28;20401;-85
2021/08/07 12:56:05;;;;;;;3.58;1.30;;;;;;;;;;5090506;28;20368;-81
2021/08/07 12:58:31;;;;;;;2.65;1.20;;;;;;;;;;5090621;28;20850;-82
2021/08/07 13:01:13;;;;;;;5.10;1.70;;;;;;;;;;5089462;28;20448;-81
2021/08/07 13:04:14;;;;;;;3.42;1.40;;;;;;;;;;5089253;28;20890;-84
2021/08/07 13:07:13;;;;;;;2.50;1.00;;;;;;;;;;4987146;28;20401;-83
2021/08/07 13:09:40;;;;;;;3.33;1.13;;;;;;;;;;5036114;28;20752;-82
2021/08/07 13:12:06;;;;;;;2.38;1.00;;;;;;;;;;5051562;28;20488;-82
2021/08/07 13:14:33;;;;;;;4.97;3.33;;;;;;;;;;5056235;28;20460;-82
2021/08/07 13:16:59;;;;;;;3.05;1.05;;;;;;;;;;5089596;28;20414;-82
2021/08/07 13:19:26;;;;;;;9.48;1.60;;;;;;;;;;5089079;28;20365;-83
2021/08/07 13:21:56;;;;;;;2.35;0.90;;;;;;;;;;5089169;28;20369;-81
2021/08/07 13:24:35;;;;;;;3.05;1.20;;;;;;;;;;5071524;28;20491;-81
2021/08/07 13:27:03;;;;;;;2.10;1.15;;;;;;;;;;5088210;28;20430;-82
2021/08/07 13:29:29;;;;;;;3.08;1.00;;;;;;;;;;5070637;28;20477;-83
2021/08/07 13:31:55;;;;;;;2.25;1.40;;;;;;;;;;5071108;28;20415;-83